Time;durP1;ratioP1;P1;durP2;ratioP2;P2;SDS_P1;SDS_P2;PMS_P1;PMS_P2;Temp;Humidity;BMP_temperature;BMP_pressure;BME280_temperature;BME280_humidity;BME280_pressure;Samples;Min_cycle;Max_cycle;Signal;HPM_P1;HPM_P2
2024/02/09 00:00:51;;;;;;;;;;;;;;;;;;5028954;28;19967;-69
2024/02/09 00:03:19;;;;;;;;;;;;;;;;;;5024497;28;19937;-69
2024/02/09 00:05:49;;;;;;;;;;;;;;;;;;5028272;28;20335;-68
2024/02/09 00:08:16;;;;;;;;;;;;;;;;;;5028910;28;19982;-68
2024/02/09 00:10:43;;;;;;;;;;;;;;;;;;5028021;28;19929;-68
2024/02/09 00:13:14;;;;;;;;;;;;;;;;;;5020087;28;19929;-68
2024/02/09 00:15:42;;;;;;;;;;;;;;;;;;5021260;28;19933;-68
2024/02/09 00:18:10;;;;;;;;;;;;;;;;;;5029560;28;19929;-69
2024/02/09 00:20:37;;;;;;;;;;;;;;;;;;5030215;28;20467;-69
2024/02/09 00:23:04;;;;;;;;;;;;;;;;;;5012629;28;20071;-69
2024/02/09 00:25:31;;;;;;;;;;;;;;;;;;5028010;28;19935;-69
2024/02/09 00:27:59;;;;;;;;;;;;;;;;;;5025317;28;20032;-68
2024/02/09 00:30:27;;;;;;;;;;;;;;;;;;5028848;28;19959;-68
2024/02/09 00:32:54;;;;;;;;;;;;;;;;;;5027996;28;19932;-68
2024/02/09 00:35:23;;;;;;;;;;;;;;;;;;5029767;28;20020;-68
2024/02/09 00:37:55;;;;;;;;;;;;;;;;;;5028907;28;19947;-68
2024/02/09 00:40:22;;;;;;;;;;;;;;;;;;5028708;28;19960;-68
2024/02/09 00:42:51;;;;;;;;;;;;;;;;;;5021377;28;19929;-68
2024/02/09 00:45:18;;;;;;;;;;;;;;;;;;5020368;28;19929;-68
2024/02/09 00:47:47;;;;;;;;;;;;;;;;;;5034903;28;20371;-69
2024/02/09 00:50:17;;;;;;;;;;;;;;;;;;5035403;28;19940;-69
2024/02/09 00:52:44;;;;;;;;;;;;;;;;;;5037320;28;20314;-69
2024/02/09 00:55:12;;;;;;;;;;;;;;;;;;5034533;28;20447;-68
2024/02/09 00:57:40;;;;;;;;;;;;;;;;;;5034943;28;20028;-68
2024/02/09 01:00:09;;;;;;;;;;;;;;;;;;5034975;28;19936;-69
2024/02/09 01:02:36;;;;;;;;;;;;;;;;;;5034682;28;20027;-69
2024/02/09 01:05:03;;;;;;;;;;;;;;;;;;5032020;28;19979;-70
2024/02/09 01:07:30;;;;;;;;;;;;;;;;;;5034043;28;19948;-68
2024/02/09 01:09:58;;;;;;;;;;;;;;;;;;5034203;28;19929;-69
2024/02/09 02:45:28;;;;;;;;;;;;;;;;;;5028478;28;19917;-68
2024/02/09 03:04:28;;;;;;;;;;;;;;;;;;5007439;28;19999;-70
2024/02/09 03:06:55;;;;;;;;;;;;;;;;;;5007305;28;19983;-70
2024/02/09 03:09:22;;;;;;;;;;;;;;;;;;4999173;28;20418;-70
2024/02/09 03:11:50;;;;;;;;;;;;;;;;;;5006942;28;19929;-70
2024/02/09 03:14:17;;;;;;;;;;;;;;;;;;5004414;28;19936;-70
2024/02/09 03:16:45;;;;;;;;;;;;;;;;;;5008180;28;19933;-70
2024/02/09 03:19:15;;;;;;;;;;;;;;;;;;5005442;28;19933;-70
2024/02/09 03:21:42;;;;;;;;;;;;;;;;;;5010510;28;19929;-70
2024/02/09 03:24:09;;;;;;;;;;;;;;;;;;5008396;28;20703;-70
2024/02/09 03:26:36;;;;;;;;;;;;;;;;;;5012826;28;20025;-68
2024/02/09 03:29:02;;;;;;;;;;;;;;;;;;5003824;28;19936;-67
2024/02/09 03:31:31;;;;;;;;;;;;;;;;;;5006181;28;19933;-68
2024/02/09 03:33:58;;;;;;;;;;;;;;;;;;5013503;28;19984;-70
2024/02/09 03:36:25;;;;;;;;;;;;;;;;;;5007754;28;20541;-70
2024/02/09 03:38:52;;;;;;;;;;;;;;;;;;5029794;28;20039;-70
2024/02/09 03:41:20;;;;;;;;;;;;;;;;;;5028788;28;20043;-70
2024/02/09 03:43:47;;;;;;;;;;;;;;;;;;5028472;28;19929;-70
2024/02/09 03:46:15;;;;;;;;;;;;;;;;;;5029779;28;19940;-68
2024/02/09 03:48:42;;;;;;;;;;;;;;;;;;5029294;28;20296;-68
2024/02/09 03:51:09;;;;;;;;;;;;;;;;;;5028179;28;20003;-70
2024/02/09 03:53:36;;;;;;;;;;;;;;;;;;5029410;28;19933;-70
2024/02/09 03:56:03;;;;;;;;;;;;;;;;;;5029578;28;19939;-67
2024/02/09 03:58:30;;;;;;;;;;;;;;;;;;5029458;28;19929;-70
2024/02/09 04:00:58;;;;;;;;;;;;;;;;;;5029863;28;19929;-71
2024/02/09 04:03:25;;;;;;;;;;;;;;;;;;5023703;28;20449;-70
2024/02/09 04:05:52;;;;;;;;;;;;;;;;;;5019808;28;19940;-70
2024/02/09 04:08:19;;;;;;;;;;;;;;;;;;5029504;28;19936;-69
2024/02/09 04:10:46;;;;;;;;;;;;;;;;;;5029229;28;20372;-67
2024/02/09 04:13:13;;;;;;;;;;;;;;;;;;5028062;28;19929;-70
2024/02/09 04:15:40;;;;;;;;;;;;;;;;;;5028946;28;19936;-68
2024/02/09 04:18:08;;;;;;;;;;;;;;;;;;5029062;28;19951;-68
2024/02/09 04:20:35;;;;;;;;;;;;;;;;;;5027116;28;19929;-70
2024/02/09 04:23:01;;;;;;;;;;;;;;;;;;5027670;28;20567;-70
2024/02/09 04:25:28;;;;;;;;;;;;;;;;;;5028927;28;20027;-70
2024/02/09 04:28:00;;;;;;;;;;;;;;;;;;5028614;28;19939;-69
2024/02/09 04:30:27;;;;;;;;;;;;;;;;;;5023480;28;19929;-69
2024/02/09 04:32:54;;;;;;;;;;;;;;;;;;5029196;28;20024;-69
2024/02/09 04:35:24;;;;;;;;;;;;;;;;;;5027270;28;20044;-69
2024/02/09 04:37:51;;;;;;;;;;;;;;;;;;5026928;28;19928;-69
2024/02/09 04:40:19;;;;;;;;;;;;;;;;;;5027272;28;20590;-69
2024/02/09 04:42:46;;;;;;;;;;;;;;;;;;5028471;28;19929;-69
2024/02/09 04:45:13;;;;;;;;;;;;;;;;;;5026321;28;19929;-69
2024/02/09 04:47:40;;;;;;;;;;;;;;;;;;5028014;28;20397;-69
2024/02/09 04:50:07;;;;;;;;;;;;;;;;;;5022817;28;19936;-69
2024/02/09 04:52:35;;;;;;;;;;;;;;;;;;5031980;28;20024;-69
2024/02/09 04:55:04;;;;;;;;;;;;;;;;;;5028207;28;19972;-69
2024/02/09 04:57:31;;;;;;;;;;;;;;;;;;5027979;28;19936;-69
2024/02/09 04:59:58;;;;;;;;;;;;;;;;;;5028757;28;19960;-69
2024/02/09 05:02:25;;;;;;;;;;;;;;;;;;5027879;28;20590;-69
2024/02/09 05:04:52;;;;;;;;;;;;;;;;;;5027325;28;20023;-69
2024/02/09 05:07:19;;;;;;;;;;;;;;;;;;5026200;28;20019;-68
2024/02/09 05:09:46;;;;;;;;;;;;;;;;;;5026978;28;19995;-69
2024/02/09 05:12:13;;;;;;;;;;;;;;;;;;5028654;28;20417;-68
2024/02/09 05:14:40;;;;;;;;;;;;;;;;;;5028840;28;20020;-69
2024/02/09 05:17:07;;;;;;;;;;;;;;;;;;5024261;28;20040;-69
2024/02/09 05:19:36;;;;;;;;;;;;;;;;;;5026685;28;19929;-69
2024/02/09 05:22:04;;;;;;;;;;;;;;;;;;5028466;28;19940;-69
2024/02/09 05:24:31;;;;;;;;;;;;;;;;;;5031397;28;19983;-70
2024/02/09 05:26:58;;;;;;;;;;;;;;;;;;5028606;28;20020;-68
2024/02/09 05:29:25;;;;;;;;;;;;;;;;;;5030251;28;19933;-70
2024/02/09 05:31:56;;;;;;;;;;;;;;;;;;5031487;28;20019;-70
2024/02/09 05:34:23;;;;;;;;;;;;;;;;;;5030329;28;19929;-67
2024/02/09 05:36:51;;;;;;;;;;;;;;;;;;5031454;28;19929;-68
2024/02/09 05:39:18;;;;;;;;;;;;;;;;;;5032380;28;19929;-68
2024/02/09 05:41:45;;;;;;;;;;;;;;;;;;5032632;28;19935;-68
2024/02/09 05:44:12;;;;;;;;;;;;;;;;;;5030339;28;19929;-69
2024/02/09 05:46:39;;;;;;;;;;;;;;;;;;5029312;28;20458;-69
2024/02/09 05:49:07;;;;;;;;;;;;;;;;;;5030692;28;19933;-70
2024/02/09 05:51:34;;;;;;;;;;;;;;;;;;5031618;28;19933;-70
2024/02/09 05:54:01;;;;;;;;;;;;;;;;;;5031851;28;19939;-70
2024/02/09 05:56:29;;;;;;;;;;;;;;;;;;5029806;28;20400;-70
2024/02/09 05:58:57;;;;;;;;;;;;;;;;;;5031998;28;19940;-70
2024/02/09 06:01:23;;;;;;;;;;;;;;;;;;5022135;28;19933;-70
2024/02/09 06:03:52;;;;;;;;;;;;;;;;;;5023479;28;19960;-70
2024/02/09 06:06:20;;;;;;;;;;;;;;;;;;5024951;28;19929;-71
2024/02/09 06:08:47;;;;;;;;;;;;;;;;;;5029092;28;19929;-70
2024/02/09 06:11:15;;;;;;;;;;;;;;;;;;5023850;28;19929;-70
2024/02/09 06:13:45;;;;;;;;;;;;;;;;;;5031124;28;19936;-70
2024/02/09 06:16:12;;;;;;;;;;;;;;;;;;5030126;28;19929;-70
2024/02/09 06:18:39;;;;;;;;;;;;;;;;;;5020482;28;19936;-70
2024/02/09 06:21:06;;;;;;;;;;;;;;;;;;5029775;28;19933;-70
2024/02/09 06:23:35;;;;;;;;;;;;;;;;;;5030467;28;19929;-70
2024/02/09 06:26:02;;;;;;;;;;;;;;;;;;5030854;28;20336;-70
2024/02/09 06:28:29;;;;;;;;;;;;;;;;;;5029951;28;20016;-70
2024/02/09 06:30:56;;;;;;;;;;;;;;;;;;5029547;28;19940;-70
2024/02/09 06:33:23;;;;;;;;;;;;;;;;;;5033780;28;19929;-70
2024/02/09 06:35:50;;;;;;;;;;;;;;;;;;5031355;28;20121;-70
2024/02/09 06:38:18;;;;;;;;;;;;;;;;;;5026095;28;20414;-71
2024/02/09 06:40:45;;;;;;;;;;;;;;;;;;5022206;28;19945;-70
2024/02/09 06:43:12;;;;;;;;;;;;;;;;;;5028980;28;20369;-70
2024/02/09 06:45:39;;;;;;;;;;;;;;;;;;5024112;28;19948;-70
2024/02/09 06:48:06;;;;;;;;;;;;;;;;;;5023636;28;20416;-71
2024/02/09 06:50:34;;;;;;;;;;;;;;;;;;5025519;28;19930;-71
2024/02/09 06:53:01;;;;;;;;;;;;;;;;;;5024954;28;20016;-70
2024/02/09 06:55:28;;;;;;;;;;;;;;;;;;5018506;28;20032;-72
2024/02/09 06:57:56;;;;;;;;;;;;;;;;;;5024500;28;20043;-71
2024/02/09 07:00:25;;;;;;;;;;;;;;;;;;5025793;28;19929;-72
2024/02/09 07:02:52;;;;;;;;;;;;;;;;;;5027192;28;19929;-71
2024/02/09 07:05:20;;;;;;;;;;;;;;;;;;5024654;28;21035;-71
2024/02/09 07:07:49;;;;;;;;;;;;;;;;;;5030110;28;19933;-71
2024/02/09 07:10:16;;;;;;;;;;;;;;;;;;5025670;28;19982;-70
2024/02/09 07:12:43;;;;;;;;;;;;;;;;;;5029987;28;19929;-70
2024/02/09 07:15:12;;;;;;;;;;;;;;;;;;5024877;28;19935;-72
2024/02/09 07:17:39;;;;;;;;;;;;;;;;;;5020115;28;19929;-71
2024/02/09 07:20:06;;;;;;;;;;;;;;;;;;5022133;28;20024;-70
2024/02/09 07:22:35;;;;;;;;;;;;;;;;;;5022513;28;20027;-71
2024/02/09 07:25:02;;;;;;;;;;;;;;;;;;5029706;28;19929;-74
2024/02/09 07:27:29;;;;;;;;;;;;;;;;;;5026029;28;20483;-74
2024/02/09 07:29:56;;;;;;;;;;;;;;;;;;5026152;28;20655;-71
2024/02/09 07:32:23;;;;;;;;;;;;;;;;;;5028120;28;19951;-71
2024/02/09 07:34:50;;;;;;;;;;;;;;;;;;5028411;28;19929;-71
2024/02/09 07:37:17;;;;;;;;;;;;;;;;;;5027136;28;19933;-70
2024/02/09 07:39:44;;;;;;;;;;;;;;;;;;5025513;28;20005;-71
2024/02/09 07:42:11;;;;;;;;;;;;;;;;;;5026838;28;20455;-71
2024/02/09 07:44:39;;;;;;;;;;;;;;;;;;5019221;28;20040;-70
2024/02/09 07:47:06;;;;;;;;;;;;;;;;;;5031191;28;19935;-70
2024/02/09 07:49:33;;;;;;;;;;;;;;;;;;5026964;28;19947;-70
2024/02/09 07:52:00;;;;;;;;;;;;;;;;;;5024267;28;20395;-70
2024/02/09 07:54:28;;;;;;;;;;;;;;;;;;5019468;28;19930;-70
2024/02/09 07:56:55;;;;;;;;;;;;;;;;;;5026436;28;20394;-71
2024/02/09 07:59:23;;;;;;;;;;;;;;;;;;5030105;28;19929;-70
2024/02/09 08:01:51;;;;;;;;;;;;;;;;;;5022350;28;19929;-70
2024/02/09 08:04:18;;;;;;;;;;;;;;;;;;5028558;28;20396;-71
2024/02/09 08:06:45;;;;;;;;;;;;;;;;;;5018301;28;20020;-70
2024/02/09 08:09:12;;;;;;;;;;;;;;;;;;5023088;28;19935;-70
2024/02/09 08:11:42;;;;;;;;;;;;;;;;;;5023463;28;20268;-70
2024/02/09 08:14:09;;;;;;;;;;;;;;;;;;5025585;28;19965;-71
2024/02/09 08:16:38;;;;;;;;;;;;;;;;;;5024410;28;19929;-70
2024/02/09 08:19:06;;;;;;;;;;;;;;;;;;5021193;28;19929;-71
2024/02/09 08:21:36;;;;;;;;;;;;;;;;;;5024165;28;19929;-71
2024/02/09 08:24:03;;;;;;;;;;;;;;;;;;5027676;28;20366;-71
2024/02/09 08:26:30;;;;;;;;;;;;;;;;;;5038567;28;19935;-71
2024/02/09 08:28:57;;;;;;;;;;;;;;;;;;5026782;28;19929;-68
2024/02/09 08:31:24;;;;;;;;;;;;;;;;;;5030096;28;20515;-68
2024/02/09 08:33:51;;;;;;;;;;;;;;;;;;5037863;28;19945;-68
2024/02/09 08:36:21;;;;;;;;;;;;;;;;;;5025515;28;19933;-68
2024/02/09 08:38:48;;;;;;;;;;;;;;;;;;5028401;28;19956;-68
2024/02/09 08:41:15;;;;;;;;;;;;;;;;;;5027715;28;19929;-68
2024/02/09 08:43:42;;;;;;;;;;;;;;;;;;5028405;28;19929;-69
2024/02/09 08:46:09;;;;;;;;;;;;;;;;;;5027524;28;19938;-68
2024/02/09 08:48:36;;;;;;;;;;;;;;;;;;5032334;28;19932;-68
2024/02/09 08:51:03;;;;;;;;;;;;;;;;;;5028162;28;19929;-68
2024/02/09 08:53:30;;;;;;;;;;;;;;;;;;5022320;28;20007;-68
2024/02/09 08:55:57;;;;;;;;;;;;;;;;;;5027516;28;19983;-68
2024/02/09 08:58:24;;;;;;;;;;;;;;;;;;5028113;28;20459;-68
2024/02/09 09:00:51;;;;;;;;;;;;;;;;;;5025564;28;19935;-68
2024/02/09 09:03:18;;;;;;;;;;;;;;;;;;5028577;28;20399;-68
2024/02/09 09:05:47;;;;;;;;;;;;;;;;;;5035436;28;20136;-71
2024/02/09 09:08:14;;;;;;;;;;;;;;;;;;5034191;28;19928;-67
2024/02/09 09:10:41;;;;;;;;;;;;;;;;;;5031279;28;20281;-69
2024/02/09 09:13:10;;;;;;;;;;;;;;;;;;5031875;28;19933;-67
2024/02/09 09:15:37;;;;;;;;;;;;;;;;;;5027465;28;19925;-69
2024/02/09 09:18:05;;;;;;;;;;;;;;;;;;5026716;28;20012;-69
2024/02/09 09:20:34;;;;;;;;;;;;;;;;;;5028384;28;19929;-68
2024/02/09 09:23:01;;;;;;;;;;;;;;;;;;5018710;28;20324;-68
2024/02/09 09:25:29;;;;;;;;;;;;;;;;;;5022233;28;19934;-68
2024/02/09 09:27:56;;;;;;;;;;;;;;;;;;5022842;28;19929;-68
2024/02/09 09:30:23;;;;;;;;;;;;;;;;;;5029773;28;19929;-69
2024/02/09 09:32:50;;;;;;;;;;;;;;;;;;5027557;28;20464;-69
2024/02/09 09:35:17;;;;;;;;;;;;;;;;;;5017531;28;20012;-69
2024/02/09 09:37:45;;;;;;;;;;;;;;;;;;5030177;28;20007;-69
2024/02/09 09:40:12;;;;;;;;;;;;;;;;;;5029519;28;19929;-71
2024/02/09 09:42:39;;;;;;;;;;;;;;;;;;5019677;28;19929;-72
2024/02/09 09:45:08;;;;;;;;;;;;;;;;;;5029025;28;20090;-72
2024/02/09 09:47:35;;;;;;;;;;;;;;;;;;5028818;28;19974;-71
2024/02/09 09:50:05;;;;;;;;;;;;;;;;;;5028382;28;19936;-72
2024/02/09 09:52:32;;;;;;;;;;;;;;;;;;5025702;28;20388;-72
2024/02/09 09:54:59;;;;;;;;;;;;;;;;;;5026112;28;19933;-71
2024/02/09 09:57:26;;;;;;;;;;;;;;;;;;5023448;28;20037;-71
2024/02/09 09:59:53;;;;;;;;;;;;;;;;;;5019723;28;19928;-71
2024/02/09 10:02:20;;;;;;;;;;;;;;;;;;5022774;28;19929;-71
2024/02/09 10:04:47;;;;;;;;;;;;;;;;;;5030506;28;19929;-71
2024/02/09 10:07:15;;;;;;;;;;;;;;;;;;5021370;28;19939;-71
2024/02/09 10:09:42;;;;;;;;;;;;;;;;;;5025732;28;19937;-71
2024/02/09 10:12:10;;;;;;;;;;;;;;;;;;5022343;28;19933;-71
2024/02/09 10:14:37;;;;;;;;;;;;;;;;;;5030531;28;19929;-71
2024/02/09 10:17:05;;;;;;;;;;;;;;;;;;5023422;28;19929;-71
2024/02/09 10:19:32;;;;;;;;;;;;;;;;;;5019591;28;19937;-71
2024/02/09 10:21:59;;;;;;;;;;;;;;;;;;5030430;28;20311;-70
2024/02/09 10:24:26;;;;;;;;;;;;;;;;;;5029690;28;19933;-71
2024/02/09 10:26:53;;;;;;;;;;;;;;;;;;5025487;28;19929;-71
2024/02/09 10:29:20;;;;;;;;;;;;;;;;;;5019684;28;20017;-71
2024/02/09 10:31:47;;;;;;;;;;;;;;;;;;5023324;28;19929;-71
2024/02/09 10:34:14;;;;;;;;;;;;;;;;;;5028347;28;20379;-71
2024/02/09 10:36:42;;;;;;;;;;;;;;;;;;5028795;28;20036;-71
2024/02/09 10:39:08;;;;;;;;;;;;;;;;;;5026849;28;19940;-70
2024/02/09 10:41:36;;;;;;;;;;;;;;;;;;5032914;28;19929;-74
2024/02/09 10:44:13;;;;;;;;;;;;;;;;;;5034708;28;19929;-74
2024/02/09 10:46:43;;;;;;;;;;;;;;;;;;5020052;28;19933;-72
2024/02/09 10:49:11;;;;;;;;;;;;;;;;;;5029036;28;19933;-71
2024/02/09 10:51:40;;;;;;;;;;;;;;;;;;5029505;28;20402;-73
2024/02/09 10:54:09;;;;;;;;;;;;;;;;;;5027594;28;19935;-71
2024/02/09 10:56:36;;;;;;;;;;;;;;;;;;5024132;28;20002;-73
2024/02/09 10:59:05;;;;;;;;;;;;;;;;;;5017129;28;19929;-70
2024/02/09 11:01:42;;;;;;;;;;;;;;;;;;5026053;28;19936;-73
2024/02/09 11:04:09;;;;;;;;;;;;;;;;;;5026369;28;19929;-72
2024/02/09 11:06:36;;;;;;;;;;;;;;;;;;5030123;28;19971;-72
2024/02/09 11:09:05;;;;;;;;;;;;;;;;;;5026204;28;20347;-73
2024/02/09 11:11:32;;;;;;;;;;;;;;;;;;5019027;28;20265;-72
2024/02/09 11:13:59;;;;;;;;;;;;;;;;;;5028654;28;19933;-72
2024/02/09 11:16:26;;;;;;;;;;;;;;;;;;5024119;28;20473;-71
2024/02/09 11:19:02;;;;;;;;;;;;;;;;;;5016820;28;19929;-72
2024/02/09 11:21:29;;;;;;;;;;;;;;;;;;5023027;28;19943;-72
2024/02/09 11:23:59;;;;;;;;;;;;;;;;;;5026756;28;19929;-71
2024/02/09 11:26:26;;;;;;;;;;;;;;;;;;5024823;28;20024;-71
2024/02/09 11:28:55;;;;;;;;;;;;;;;;;;5026271;28;19929;-71
2024/02/09 11:31:26;;;;;;;;;;;;;;;;;;5027752;28;20095;-72
2024/02/09 11:33:57;;;;;;;;;;;;;;;;;;5026883;28;19978;-72
2024/02/09 11:36:24;;;;;;;;;;;;;;;;;;5024571;28;19936;-73
2024/02/09 11:38:56;;;;;;;;;;;;;;;;;;5023597;28;20372;-70
2024/02/09 11:41:23;;;;;;;;;;;;;;;;;;5024673;28;19929;-72
2024/02/09 11:43:52;;;;;;;;;;;;;;;;;;5022736;28;19930;-70
2024/02/09 11:46:19;;;;;;;;;;;;;;;;;;5027477;28;19980;-69
2024/02/09 11:48:49;;;;;;;;;;;;;;;;;;5023859;28;20020;-68
2024/02/09 11:51:18;;;;;;;;;;;;;;;;;;5028397;28;19929;-69
2024/02/09 11:53:45;;;;;;;;;;;;;;;;;;5043050;28;19980;-70
2024/02/09 11:56:16;;;;;;;;;;;;;;;;;;5024995;28;20320;-69
2024/02/09 11:58:49;;;;;;;;;;;;;;;;;;5027291;28;19929;-69
2024/02/09 12:01:16;;;;;;;;;;;;;;;;;;5027602;28;20047;-69
2024/02/09 12:03:46;;;;;;;;;;;;;;;;;;5026029;28;19941;-70
2024/02/09 12:06:14;;;;;;;;;;;;;;;;;;5027811;28;19929;-67
2024/02/09 12:08:41;;;;;;;;;;;;;;;;;;5024383;28;19933;-67
2024/02/09 12:11:08;;;;;;;;;;;;;;;;;;5024394;28;19935;-66
2024/02/09 12:13:35;;;;;;;;;;;;;;;;;;5025007;28;19962;-67
2024/02/09 12:16:02;;;;;;;;;;;;;;;;;;5026178;28;20074;-67
2024/02/09 12:18:29;;;;;;;;;;;;;;;;;;5024388;28;19968;-67
2024/02/09 12:20:56;;;;;;;;;;;;;;;;;;5018685;28;19932;-67
2024/02/09 12:23:24;;;;;;;;;;;;;;;;;;5022258;28;20027;-67
2024/02/09 12:25:51;;;;;;;;;;;;;;;;;;5021571;28;19929;-68
2024/02/09 12:28:18;;;;;;;;;;;;;;;;;;5018266;28;19928;-68
2024/02/09 12:30:45;;;;;;;;;;;;;;;;;;5020977;28;19933;-67
2024/02/09 12:33:12;;;;;;;;;;;;;;;;;;5021307;28;20012;-67
2024/02/09 12:35:41;;;;;;;;;;;;;;;;;;5022085;28;19930;-68
2024/02/09 12:38:08;;;;;;;;;;;;;;;;;;5025879;28;20030;-69
2024/02/09 12:40:35;;;;;;;;;;;;;;;;;;5021513;28;20000;-68
2024/02/09 12:43:03;;;;;;;;;;;;;;;;;;5024132;28;19928;-69
2024/02/09 12:45:31;;;;;;;;;;;;;;;;;;5017797;28;20344;-67
2024/02/09 12:47:58;;;;;;;;;;;;;;;;;;5019332;28;19969;-68
2024/02/09 12:50:26;;;;;;;;;;;;;;;;;;5013520;28;19933;-68
2024/02/09 12:52:53;;;;;;;;;;;;;;;;;;5016141;28;20019;-68
2024/02/09 12:55:20;;;;;;;;;;;;;;;;;;5024427;28;20019;-68
2024/02/09 12:57:48;;;;;;;;;;;;;;;;;;5026122;28;19929;-68
2024/02/09 13:00:15;;;;;;;;;;;;;;;;;;5026726;28;19933;-67
2024/02/09 13:02:42;;;;;;;;;;;;;;;;;;5024735;28;19990;-68
2024/02/09 13:05:09;;;;;;;;;;;;;;;;;;5026052;28;20418;-69
2024/02/09 13:07:36;;;;;;;;;;;;;;;;;;5021051;28;20671;-68
2024/02/09 13:10:03;;;;;;;;;;;;;;;;;;5026740;28;20007;-68
2024/02/09 13:12:37;;;;;;;;;;;;;;;;;;5026355;28;20295;-68
2024/02/09 13:15:04;;;;;;;;;;;;;;;;;;5027539;28;19929;-69
2024/02/09 13:17:35;;;;;;;;;;;;;;;;;;5029860;28;20426;-69
2024/02/09 13:20:03;;;;;;;;;;;;;;;;;;5030519;28;19929;-68
2024/02/09 13:22:30;;;;;;;;;;;;;;;;;;5025107;28;20458;-69
2024/02/09 13:24:57;;;;;;;;;;;;;;;;;;5026869;28;19964;-68
2024/02/09 13:27:24;;;;;;;;;;;;;;;;;;5024274;28;20025;-68
2024/02/09 13:29:51;;;;;;;;;;;;;;;;;;5021129;28;19995;-67
2024/02/09 13:32:18;;;;;;;;;;;;;;;;;;5025314;28;19940;-68
2024/02/09 13:34:45;;;;;;;;;;;;;;;;;;5022813;28;20998;-68
2024/02/09 13:37:12;;;;;;;;;;;;;;;;;;5025423;28;20364;-68
2024/02/09 13:39:39;;;;;;;;;;;;;;;;;;5024063;28;20028;-67
2024/02/09 13:42:06;;;;;;;;;;;;;;;;;;5026952;28;19929;-68
2024/02/09 13:44:37;;;;;;;;;;;;;;;;;;5026904;28;19929;-68
2024/02/09 13:47:04;;;;;;;;;;;;;;;;;;5020336;28;20463;-68
2024/02/09 13:49:31;;;;;;;;;;;;;;;;;;5027957;28;19964;-68
2024/02/09 13:51:58;;;;;;;;;;;;;;;;;;5021888;28;20375;-68
2024/02/09 13:54:25;;;;;;;;;;;;;;;;;;5029273;28;19935;-67
2024/02/09 13:56:52;;;;;;;;;;;;;;;;;;5027258;28;20044;-68
2024/02/09 13:59:20;;;;;;;;;;;;;;;;;;5029444;28;19983;-68
2024/02/09 14:01:47;;;;;;;;;;;;;;;;;;5027614;28;20050;-68
2024/02/09 14:04:14;;;;;;;;;;;;;;;;;;5027760;28;20032;-68
2024/02/09 14:06:42;;;;;;;;;;;;;;;;;;5026058;28;20019;-69
2024/02/09 14:09:09;;;;;;;;;;;;;;;;;;5028035;28;19930;-69
2024/02/09 14:11:38;;;;;;;;;;;;;;;;;;5026405;28;19929;-69
2024/02/09 14:14:05;;;;;;;;;;;;;;;;;;5024658;28;19928;-69
2024/02/09 14:16:35;;;;;;;;;;;;;;;;;;5027134;28;20008;-68
2024/02/09 14:19:04;;;;;;;;;;;;;;;;;;5027036;28;20399;-68
2024/02/09 14:21:31;;;;;;;;;;;;;;;;;;5028230;28;20392;-67
2024/02/09 14:23:58;;;;;;;;;;;;;;;;;;5020148;28;19957;-69
2024/02/09 14:26:25;;;;;;;;;;;;;;;;;;5030588;28;20031;-68
2024/02/09 14:28:59;;;;;;;;;;;;;;;;;;5018648;28;20007;-68
2024/02/09 14:31:26;;;;;;;;;;;;;;;;;;5027701;28;20311;-69
2024/02/09 14:33:54;;;;;;;;;;;;;;;;;;5022812;28;19929;-69
2024/02/09 14:36:21;;;;;;;;;;;;;;;;;;5015837;28;19933;-69
2024/02/09 14:38:48;;;;;;;;;;;;;;;;;;5027111;28;19933;-69
2024/02/09 14:41:15;;;;;;;;;;;;;;;;;;5025520;28;20052;-69
2024/02/09 14:43:42;;;;;;;;;;;;;;;;;;5027662;28;19935;-69
2024/02/09 14:46:10;;;;;;;;;;;;;;;;;;5037122;28;20406;-68
2024/02/09 14:48:37;;;;;;;;;;;;;;;;;;5027590;28;19952;-68
2024/02/09 14:51:04;;;;;;;;;;;;;;;;;;5028702;28;19929;-68
2024/02/09 14:53:31;;;;;;;;;;;;;;;;;;5032505;28;20016;-68
2024/02/09 14:55:58;;;;;;;;;;;;;;;;;;5028749;28;20303;-68
2024/02/09 14:58:25;;;;;;;;;;;;;;;;;;5028399;28;19936;-69
2024/02/09 15:00:55;;;;;;;;;;;;;;;;;;5026168;28;19980;-68
2024/02/09 15:03:22;;;;;;;;;;;;;;;;;;5028003;28;20254;-68
2024/02/09 15:05:49;;;;;;;;;;;;;;;;;;5028823;28;19929;-68
2024/02/09 15:08:17;;;;;;;;;;;;;;;;;;5027277;28;19929;-70
2024/02/09 15:10:44;;;;;;;;;;;;;;;;;;5028268;28;19936;-69
2024/02/09 15:13:12;;;;;;;;;;;;;;;;;;5029300;28;19929;-68
2024/02/09 15:15:42;;;;;;;;;;;;;;;;;;5021808;28;19929;-69
2024/02/09 15:18:09;;;;;;;;;;;;;;;;;;5027658;28;20598;-68
2024/02/09 15:20:36;;;;;;;;;;;;;;;;;;5040374;28;20399;-68
2024/02/09 15:23:04;;;;;;;;;;;;;;;;;;5021654;28;19933;-68
2024/02/09 15:25:33;;;;;;;;;;;;;;;;;;5026687;28;20024;-68
2024/02/09 15:28:00;;;;;;;;;;;;;;;;;;5029378;28;19979;-69
2024/02/09 15:30:27;;;;;;;;;;;;;;;;;;5027915;28;19929;-69
2024/02/09 15:32:55;;;;;;;;;;;;;;;;;;5023435;28;20544;-69
2024/02/09 15:35:22;;;;;;;;;;;;;;;;;;5017722;28;20024;-69
2024/02/09 15:37:49;;;;;;;;;;;;;;;;;;5019905;28;20426;-71
2024/02/09 15:40:21;;;;;;;;;;;;;;;;;;5027851;28;19951;-68
2024/02/09 15:42:49;;;;;;;;;;;;;;;;;;5029153;28;20663;-70
2024/02/09 15:45:16;;;;;;;;;;;;;;;;;;5027486;28;19933;-69
2024/02/09 15:47:44;;;;;;;;;;;;;;;;;;5026174;28;19952;-70
2024/02/09 15:50:12;;;;;;;;;;;;;;;;;;5026618;28;19940;-68
2024/02/09 15:52:39;;;;;;;;;;;;;;;;;;5029701;28;19936;-69
2024/02/09 15:55:07;;;;;;;;;;;;;;;;;;5029698;28;20377;-69
2024/02/09 15:57:35;;;;;;;;;;;;;;;;;;5020662;28;19932;-71
2024/02/09 16:00:04;;;;;;;;;;;;;;;;;;5029034;28;20020;-70
2024/02/09 16:02:32;;;;;;;;;;;;;;;;;;5028754;28;19933;-69
2024/02/09 16:05:01;;;;;;;;;;;;;;;;;;5028877;28;19984;-69
2024/02/09 16:07:29;;;;;;;;;;;;;;;;;;5021134;28;19959;-69
2024/02/09 16:09:56;;;;;;;;;;;;;;;;;;5028408;28;19929;-69
2024/02/09 16:12:23;;;;;;;;;;;;;;;;;;5034430;28;20016;-69
2024/02/09 16:14:50;;;;;;;;;;;;;;;;;;5016757;28;19968;-72
2024/02/09 16:17:18;;;;;;;;;;;;;;;;;;5027866;28;19933;-73
2024/02/09 16:19:45;;;;;;;;;;;;;;;;;;5030446;28;20351;-74
2024/02/09 16:22:14;;;;;;;;;;;;;;;;;;5028121;28;19976;-74
2024/02/09 16:24:41;;;;;;;;;;;;;;;;;;5028281;28;20317;-75
2024/02/09 16:27:09;;;;;;;;;;;;;;;;;;5026727;28;20012;-74
2024/02/09 16:29:35;;;;;;;;;;;;;;;;;;5023045;28;19933;-73
2024/02/09 16:32:05;;;;;;;;;;;;;;;;;;5023577;28;20012;-76
2024/02/09 16:34:32;;;;;;;;;;;;;;;;;;5029357;28;20498;-74
2024/02/09 16:37:04;;;;;;;;;;;;;;;;;;5024622;28;19983;-73
2024/02/09 16:39:34;;;;;;;;;;;;;;;;;;5026595;28;19936;-74
2024/02/09 16:42:02;;;;;;;;;;;;;;;;;;5017464;28;20343;-74
2024/02/09 16:44:30;;;;;;;;;;;;;;;;;;5020522;28;20258;-76
2024/02/09 16:46:57;;;;;;;;;;;;;;;;;;5027830;28;20783;-76
2024/02/09 16:49:27;;;;;;;;;;;;;;;;;;5020250;28;20015;-79
2024/02/09 16:51:54;;;;;;;;;;;;;;;;;;5029458;28;20396;-76
2024/02/09 16:54:21;;;;;;;;;;;;;;;;;;5026055;28;19963;-76
2024/02/09 16:56:49;;;;;;;;;;;;;;;;;;5027179;28;19956;-78
2024/02/09 16:59:22;;;;;;;;;;;;;;;;;;5038748;28;20021;-76
2024/02/09 17:01:53;;;;;;;;;;;;;;;;;;5023490;28;19929;-76
2024/02/09 17:04:20;;;;;;;;;;;;;;;;;;5024022;28;19968;-77
2024/02/09 17:06:48;;;;;;;;;;;;;;;;;;5029518;28;20483;-78
2024/02/09 17:09:15;;;;;;;;;;;;;;;;;;5018322;28;19987;-78
2024/02/09 17:11:43;;;;;;;;;;;;;;;;;;5022757;28;20300;-77
2024/02/09 17:14:10;;;;;;;;;;;;;;;;;;5019869;28;19932;-78
2024/02/09 17:16:37;;;;;;;;;;;;;;;;;;5024152;28;19932;-77
2024/02/09 17:19:04;;;;;;;;;;;;;;;;;;5025377;28;19951;-77
2024/02/09 17:21:31;;;;;;;;;;;;;;;;;;5019420;28;19940;-77
2024/02/09 17:23:58;;;;;;;;;;;;;;;;;;5021479;28;19933;-77
2024/02/09 17:26:26;;;;;;;;;;;;;;;;;;5022140;28;19964;-78
2024/02/09 17:28:53;;;;;;;;;;;;;;;;;;5024005;28;19929;-77
2024/02/09 17:31:20;;;;;;;;;;;;;;;;;;5022872;28;19929;-77
2024/02/09 17:33:47;;;;;;;;;;;;;;;;;;5019791;28;19929;-77
2024/02/09 17:36:15;;;;;;;;;;;;;;;;;;5022120;28;19929;-78
2024/02/09 17:38:43;;;;;;;;;;;;;;;;;;5030664;28;19936;-78
2024/02/09 17:41:10;;;;;;;;;;;;;;;;;;5024695;28;19929;-77
2024/02/09 17:43:38;;;;;;;;;;;;;;;;;;5029465;28;20028;-80
2024/02/09 17:46:06;;;;;;;;;;;;;;;;;;5023419;28;19929;-78
2024/02/09 17:48:34;;;;;;;;;;;;;;;;;;5025898;28;20407;-78
2024/02/09 17:51:03;;;;;;;;;;;;;;;;;;5025145;28;20562;-76
2024/02/09 17:53:30;;;;;;;;;;;;;;;;;;5027933;28;19983;-76
2024/02/09 17:55:57;;;;;;;;;;;;;;;;;;5023243;28;20445;-75
2024/02/09 17:58:24;;;;;;;;;;;;;;;;;;5026607;28;19928;-77
2024/02/09 18:00:53;;;;;;;;;;;;;;;;;;5020983;28;20012;-76
2024/02/09 18:03:20;;;;;;;;;;;;;;;;;;5030286;28;19956;-76
2024/02/09 18:05:47;;;;;;;;;;;;;;;;;;5028220;28;19935;-78
2024/02/09 18:08:14;;;;;;;;;;;;;;;;;;5026740;28;20410;-77
2024/02/09 18:10:41;;;;;;;;;;;;;;;;;;5021275;28;19929;-78
2024/02/09 18:13:08;;;;;;;;;;;;;;;;;;5023349;28;20018;-77
2024/02/09 18:15:35;;;;;;;;;;;;;;;;;;5025517;28;19929;-78
2024/02/09 18:18:02;;;;;;;;;;;;;;;;;;5026619;28;19964;-78
2024/02/09 18:20:29;;;;;;;;;;;;;;;;;;5026942;28;19935;-79
2024/02/09 18:22:58;;;;;;;;;;;;;;;;;;5021691;28;20402;-78
2024/02/09 18:25:25;;;;;;;;;;;;;;;;;;5027139;28;20410;-77
2024/02/09 18:27:53;;;;;;;;;;;;;;;;;;5048147;22;19940;-76
2024/02/09 18:30:20;;;;;;;;;;;;;;;;;;5045565;28;20027;-76
2024/02/09 18:32:47;;;;;;;;;;;;;;;;;;5041264;28;19935;-77
2024/02/09 18:35:14;;;;;;;;;;;;;;;;;;5049569;28;20031;-78
2024/02/09 18:37:41;;;;;;;;;;;;;;;;;;5032782;28;19929;-76